TAF LFSM
METAR LFSM
LFSM 270830Z AUTO 24008KT 9999 OVC015/// ///TCU 03/02 Q0991=
LFSM 270800Z AUTO 24008KT 8000 -RA BKN011/// OVC017/// ///TCU 03/02 Q0991=
LFSM 270730Z AUTO 24007KT 9999 -RA OVC014 03/02 Q0991=
LFSM 270700Z AUTO 23006KT 9999 -RA BKN013 OVC018 03/02 Q0990=
LFSM 270630Z AUTO 23008KT 190V270 9999 -RA BKN018 OVC023 03/02 Q0990=
WC LFSM
WS LFSM
WV LFSM